sensor_id;sensor_type;location;lat;lon;timestamp;temperature;humidity
43049;DHT22;28673;44.412;11.918;2024-03-08T00:01:10;6.80;99.90
43049;DHT22;28673;44.412;11.918;2024-03-08T00:03:36;6.80;99.90
43049;DHT22;28673;44.412;11.918;2024-03-08T00:06:02;6.80;99.90
43049;DHT22;28673;44.412;11.918;2024-03-08T00:08:28;6.80;99.90
43049;DHT22;28673;44.412;11.918;2024-03-08T00:10:54;6.70;99.90
43049;DHT22;28673;44.412;11.918;2024-03-08T00:13:19;6.70;99.90
43049;DHT22;28673;44.412;11.918;2024-03-08T00:15:45;6.70;99.90
43049;DHT22;28673;44.412;11.918;2024-03-08T00:18:11;6.70;99.90
43049;DHT22;28673;44.412;11.918;2024-03-08T00:20:37;6.70;99.90
43049;DHT22;28673;44.412;11.918;2024-03-08T00:23:03;6.70;99.90
43049;DHT22;28673;44.412;11.918;2024-03-08T00:25:29;6.60;99.90
43049;DHT22;28673;44.412;11.918;2024-03-08T00:27:54;6.60;99.90
43049;DHT22;28673;44.412;11.918;2024-03-08T00:30:22;6.60;99.90
43049;DHT22;28673;44.412;11.918;2024-03-08T00:32:48;6.60;99.90
43049;DHT22;28673;44.412;11.918;2024-03-08T00:35:14;6.50;99.90
43049;DHT22;28673;44.412;11.918;2024-03-08T00:37:40;6.50;99.90
43049;DHT22;28673;44.412;11.918;2024-03-08T00:40:12;6.50;99.90
43049;DHT22;28673;44.412;11.918;2024-03-08T00:42:38;6.50;99.90
43049;DHT22;28673;44.412;11.918;2024-03-08T00:45:05;6.50;99.90
43049;DHT22;28673;44.412;11.918;2024-03-08T00:47:31;6.50;99.90
43049;DHT22;28673;44.412;11.918;2024-03-08T00:49:57;6.50;99.90
43049;DHT22;28673;44.412;11.918;2024-03-08T00:52:23;6.40;99.90
43049;DHT22;28673;44.412;11.918;2024-03-08T00:54:52;6.40;99.90
43049;DHT22;28673;44.412;11.918;2024-03-08T00:57:18;6.40;99.90
43049;DHT22;28673;44.412;11.918;2024-03-08T00:59:44;6.40;99.90
43049;DHT22;28673;44.412;11.918;2024-03-08T01:02:10;6.40;99.90
43049;DHT22;28673;44.412;11.918;2024-03-08T01:04:36;6.30;99.90
43049;DHT22;28673;44.412;11.918;2024-03-08T01:07:02;6.30;99.90
43049;DHT22;28673;44.412;11.918;2024-03-08T01:09:28;6.30;99.90
43049;DHT22;28673;44.412;11.918;2024-03-08T01:11:54;6.30;99.90
43049;DHT22;28673;44.412;11.918;2024-03-08T01:14:24;6.30;99.90
43049;DHT22;28673;44.412;11.918;2024-03-08T01:16:54;6.20;99.90
43049;DHT22;28673;44.412;11.918;2024-03-08T01:19:20;6.20;99.90
43049;DHT22;28673;44.412;11.918;2024-03-08T01:21:46;6.10;99.90
43049;DHT22;28673;44.412;11.918;2024-03-08T01:24:12;6.10;99.90
43049;DHT22;28673;44.412;11.918;2024-03-08T01:26:38;6.00;99.90
43049;DHT22;28673;44.412;11.918;2024-03-08T01:29:04;5.90;99.90
43049;DHT22;28673;44.412;11.918;2024-03-08T01:31:30;5.90;99.90
43049;DHT22;28673;44.412;11.918;2024-03-08T01:33:57;5.90;99.90
43049;DHT22;28673;44.412;11.918;2024-03-08T01:36:22;5.90;99.90
43049;DHT22;28673;44.412;11.918;2024-03-08T01:38:49;5.90;99.90
43049;DHT22;28673;44.412;11.918;2024-03-08T01:41:15;5.90;99.90
43049;DHT22;28673;44.412;11.918;2024-03-08T01:43:43;6.00;99.90
43049;DHT22;28673;44.412;11.918;2024-03-08T01:46:10;5.90;99.90
43049;DHT22;28673;44.412;11.918;2024-03-08T01:48:38;6.00;99.90
43049;DHT22;28673;44.412;11.918;2024-03-08T01:51:06;5.90;99.90
43049;DHT22;28673;44.412;11.918;2024-03-08T01:53:33;5.90;99.90
43049;DHT22;28673;44.412;11.918;2024-03-08T01:55:59;5.90;99.90
43049;DHT22;28673;44.412;11.918;2024-03-08T01:58:29;5.90;99.90
43049;DHT22;28673;44.412;11.918;2024-03-08T02:00:56;5.90;99.90
43049;DHT22;28673;44.412;11.918;2024-03-08T02:03:23;5.90;99.90
43049;DHT22;28673;44.412;11.918;2024-03-08T02:05:49;5.90;99.90
43049;DHT22;28673;44.412;11.918;2024-03-08T02:08:17;5.80;99.90
43049;DHT22;28673;44.412;11.918;2024-03-08T02:10:46;5.80;99.90
43049;DHT22;28673;44.412;11.918;2024-03-08T02:13:12;5.70;99.90
43049;DHT22;28673;44.412;11.918;2024-03-08T02:16:10;5.60;99.90
43049;DHT22;28673;44.412;11.918;2024-03-08T02:18:36;5.60;99.90
43049;DHT22;28673;44.412;11.918;2024-03-08T02:21:03;5.60;99.90
43049;DHT22;28673;44.412;11.918;2024-03-08T02:23:29;5.60;99.90
43049;DHT22;28673;44.412;11.918;2024-03-08T02:25:56;5.60;99.90
43049;DHT22;28673;44.412;11.918;2024-03-08T02:28:22;5.50;99.90
43049;DHT22;28673;44.412;11.918;2024-03-08T02:30:52;5.50;99.90
43049;DHT22;28673;44.412;11.918;2024-03-08T02:33:21;5.40;99.90
43049;DHT22;28673;44.412;11.918;2024-03-08T02:35:49;5.50;99.90
43049;DHT22;28673;44.412;11.918;2024-03-08T02:38:20;5.50;99.90
43049;DHT22;28673;44.412;11.918;2024-03-08T02:40:49;5.50;99.90
43049;DHT22;28673;44.412;11.918;2024-03-08T02:43:16;5.50;99.90
43049;DHT22;28673;44.412;11.918;2024-03-08T02:45:43;5.50;99.90
43049;DHT22;28673;44.412;11.918;2024-03-08T02:48:09;5.50;99.90
43049;DHT22;28673;44.412;11.918;2024-03-08T02:50:36;5.50;99.90
43049;DHT22;28673;44.412;11.918;2024-03-08T02:53:02;5.50;99.90
43049;DHT22;28673;44.412;11.918;2024-03-08T02:55:28;5.50;99.90
43049;DHT22;28673;44.412;11.918;2024-03-08T02:57:55;5.50;99.90
43049;DHT22;28673;44.412;11.918;2024-03-08T03:00:21;5.50;99.90
43049;DHT22;28673;44.412;11.918;2024-03-08T03:02:51;5.50;99.90
43049;DHT22;28673;44.412;11.918;2024-03-08T03:05:23;5.50;99.90
43049;DHT22;28673;44.412;11.918;2024-03-08T03:07:49;5.40;99.90
43049;DHT22;28673;44.412;11.918;2024-03-08T03:10:18;5.40;99.90
43049;DHT22;28673;44.412;11.918;2024-03-08T03:12:45;5.40;99.90
43049;DHT22;28673;44.412;11.918;2024-03-08T03:15:12;5.40;99.90
43049;DHT22;28673;44.412;11.918;2024-03-08T03:17:41;5.40;99.90
43049;DHT22;28673;44.412;11.918;2024-03-08T03:20:08;5.40;99.90
43049;DHT22;28673;44.412;11.918;2024-03-08T03:22:40;5.30;99.90
43049;DHT22;28673;44.412;11.918;2024-03-08T03:25:12;5.30;99.90
43049;DHT22;28673;44.412;11.918;2024-03-08T03:27:38;5.30;99.90
43049;DHT22;28673;44.412;11.918;2024-03-08T03:30:06;5.30;99.90
43049;DHT22;28673;44.412;11.918;2024-03-08T03:32:50;5.30;99.90
43049;DHT22;28673;44.412;11.918;2024-03-08T03:35:20;5.20;99.90
43049;DHT22;28673;44.412;11.918;2024-03-08T03:37:47;5.20;99.90
43049;DHT22;28673;44.412;11.918;2024-03-08T03:40:35;5.10;99.90
43049;DHT22;28673;44.412;11.918;2024-03-08T03:43:02;5.10;99.90
43049;DHT22;28673;44.412;11.918;2024-03-08T03:45:31;5.00;99.90
43049;DHT22;28673;44.412;11.918;2024-03-08T03:48:05;5.00;99.90
43049;DHT22;28673;44.412;11.918;2024-03-08T03:50:32;5.00;99.90
43049;DHT22;28673;44.412;11.918;2024-03-08T03:53:07;5.00;99.90
43049;DHT22;28673;44.412;11.918;2024-03-08T03:55:33;5.00;99.90
43049;DHT22;28673;44.412;11.918;2024-03-08T03:57:59;5.00;99.90
43049;DHT22;28673;44.412;11.918;2024-03-08T04:00:27;5.00;99.90
43049;DHT22;28673;44.412;11.918;2024-03-08T04:02:53;5.00;99.90
43049;DHT22;28673;44.412;11.918;2024-03-08T04:05:18;5.00;99.90
43049;DHT22;28673;44.412;11.918;2024-03-08T04:07:44;4.90;99.90
43049;DHT22;28673;44.412;11.918;2024-03-08T04:10:11;4.90;99.90
43049;DHT22;28673;44.412;11.918;2024-03-08T04:12:37;4.90;99.90
43049;DHT22;28673;44.412;11.918;2024-03-08T04:15:04;4.90;99.90
43049;DHT22;28673;44.412;11.918;2024-03-08T04:17:35;4.90;99.90
43049;DHT22;28673;44.412;11.918;2024-03-08T04:20:05;4.90;99.90
43049;DHT22;28673;44.412;11.918;2024-03-08T04:22:36;4.90;99.90
43049;DHT22;28673;44.412;11.918;2024-03-08T04:25:03;4.90;99.90
43049;DHT22;28673;44.412;11.918;2024-03-08T04:27:28;4.90;99.90
43049;DHT22;28673;44.412;11.918;2024-03-08T04:29:54;4.90;99.90
43049;DHT22;28673;44.412;11.918;2024-03-08T04:32:20;4.90;99.90
43049;DHT22;28673;44.412;11.918;2024-03-08T04:34:46;4.90;99.90
43049;DHT22;28673;44.412;11.918;2024-03-08T04:37:11;4.90;99.90
43049;DHT22;28673;44.412;11.918;2024-03-08T04:39:39;4.80;99.90
43049;DHT22;28673;44.412;11.918;2024-03-08T04:42:05;4.80;99.90
43049;DHT22;28673;44.412;11.918;2024-03-08T04:44:39;4.80;99.90
43049;DHT22;28673;44.412;11.918;2024-03-08T04:47:05;4.80;99.90
43049;DHT22;28673;44.412;11.918;2024-03-08T04:49:33;4.80;99.90
43049;DHT22;28673;44.412;11.918;2024-03-08T04:52:05;4.80;99.90
43049;DHT22;28673;44.412;11.918;2024-03-08T04:54:31;4.80;99.90
43049;DHT22;28673;44.412;11.918;2024-03-08T04:56:57;4.80;99.90
43049;DHT22;28673;44.412;11.918;2024-03-08T04:59:23;4.70;99.90
43049;DHT22;28673;44.412;11.918;2024-03-08T05:01:49;4.70;99.90
43049;DHT22;28673;44.412;11.918;2024-03-08T05:04:15;4.80;99.90
43049;DHT22;28673;44.412;11.918;2024-03-08T05:06:41;4.80;99.90
43049;DHT22;28673;44.412;11.918;2024-03-08T05:09:06;4.80;99.90
43049;DHT22;28673;44.412;11.918;2024-03-08T05:11:43;4.70;99.90
43049;DHT22;28673;44.412;11.918;2024-03-08T05:14:10;4.70;99.90
43049;DHT22;28673;44.412;11.918;2024-03-08T05:16:36;4.70;99.90
43049;DHT22;28673;44.412;11.918;2024-03-08T05:19:04;4.70;99.90
43049;DHT22;28673;44.412;11.918;2024-03-08T05:21:31;4.70;99.90
43049;DHT22;28673;44.412;11.918;2024-03-08T05:23:57;4.70;99.90
43049;DHT22;28673;44.412;11.918;2024-03-08T05:26:22;4.70;99.90
43049;DHT22;28673;44.412;11.918;2024-03-08T05:28:48;4.60;99.90
43049;DHT22;28673;44.412;11.918;2024-03-08T05:31:22;4.70;99.90
43049;DHT22;28673;44.412;11.918;2024-03-08T05:33:48;4.60;99.90
43049;DHT22;28673;44.412;11.918;2024-03-08T05:36:15;4.60;99.90
43049;DHT22;28673;44.412;11.918;2024-03-08T05:38:45;4.60;99.90
43049;DHT22;28673;44.412;11.918;2024-03-08T05:41:11;4.60;99.90
43049;DHT22;28673;44.412;11.918;2024-03-08T05:43:43;4.60;99.90
43049;DHT22;28673;44.412;11.918;2024-03-08T05:46:09;4.50;99.90
43049;DHT22;28673;44.412;11.918;2024-03-08T05:48:37;4.50;99.90
43049;DHT22;28673;44.412;11.918;2024-03-08T05:51:03;4.50;99.90
43049;DHT22;28673;44.412;11.918;2024-03-08T05:53:29;4.50;99.90
43049;DHT22;28673;44.412;11.918;2024-03-08T05:55:58;4.50;99.90
43049;DHT22;28673;44.412;11.918;2024-03-08T05:58:24;4.50;99.90
43049;DHT22;28673;44.412;11.918;2024-03-08T06:00:50;4.40;99.90
43049;DHT22;28673;44.412;11.918;2024-03-08T06:03:16;4.40;99.90
43049;DHT22;28673;44.412;11.918;2024-03-08T06:05:41;4.40;99.90
43049;DHT22;28673;44.412;11.918;2024-03-08T06:08:07;4.40;99.90
43049;DHT22;28673;44.412;11.918;2024-03-08T06:10:33;4.40;99.90
43049;DHT22;28673;44.412;11.918;2024-03-08T06:12:59;4.40;99.90
43049;DHT22;28673;44.412;11.918;2024-03-08T06:15:27;4.40;99.90
43049;DHT22;28673;44.412;11.918;2024-03-08T06:17:52;4.40;99.90
43049;DHT22;28673;44.412;11.918;2024-03-08T06:20:18;4.40;99.90
43049;DHT22;28673;44.412;11.918;2024-03-08T06:22:44;4.40;99.90
43049;DHT22;28673;44.412;11.918;2024-03-08T06:25:13;4.40;99.90
43049;DHT22;28673;44.412;11.918;2024-03-08T06:27:43;4.50;99.90
43049;DHT22;28673;44.412;11.918;2024-03-08T06:30:10;4.50;99.90
43049;DHT22;28673;44.412;11.918;2024-03-08T06:32:36;4.50;99.90
43049;DHT22;28673;44.412;11.918;2024-03-08T06:35:03;4.50;99.90
43049;DHT22;28673;44.412;11.918;2024-03-08T06:37:32;4.50;99.90
43049;DHT22;28673;44.412;11.918;2024-03-08T06:39:58;4.60;99.90
43049;DHT22;28673;44.412;11.918;2024-03-08T06:42:24;4.60;99.90
43049;DHT22;28673;44.412;11.918;2024-03-08T06:44:50;4.60;99.90
43049;DHT22;28673;44.412;11.918;2024-03-08T06:47:16;4.70;99.90
43049;DHT22;28673;44.412;11.918;2024-03-08T06:49:42;4.70;99.90
43049;DHT22;28673;44.412;11.918;2024-03-08T06:52:09;4.80;99.90
43049;DHT22;28673;44.412;11.918;2024-03-08T06:54:36;4.80;99.90
43049;DHT22;28673;44.412;11.918;2024-03-08T06:57:05;4.80;99.90
43049;DHT22;28673;44.412;11.918;2024-03-08T06:59:31;4.90;99.90
43049;DHT22;28673;44.412;11.918;2024-03-08T07:01:57;5.00;99.90
43049;DHT22;28673;44.412;11.918;2024-03-08T07:04:25;5.00;99.90
43049;DHT22;28673;44.412;11.918;2024-03-08T07:06:55;5.10;99.90
43049;DHT22;28673;44.412;11.918;2024-03-08T07:09:25;5.10;99.90
43049;DHT22;28673;44.412;11.918;2024-03-08T07:11:52;5.20;99.90
43049;DHT22;28673;44.412;11.918;2024-03-08T07:14:23;5.20;99.90
43049;DHT22;28673;44.412;11.918;2024-03-08T07:16:49;5.30;99.90
43049;DHT22;28673;44.412;11.918;2024-03-08T07:19:16;5.40;99.90
43049;DHT22;28673;44.412;11.918;2024-03-08T07:21:45;5.40;99.90
43049;DHT22;28673;44.412;11.918;2024-03-08T07:24:13;5.50;99.90
43049;DHT22;28673;44.412;11.918;2024-03-08T07:26:44;5.60;99.90
43049;DHT22;28673;44.412;11.918;2024-03-08T07:29:17;5.60;99.90
43049;DHT22;28673;44.412;11.918;2024-03-08T07:31:43;5.70;99.90
43049;DHT22;28673;44.412;11.918;2024-03-08T07:34:21;5.80;99.90
43049;DHT22;28673;44.412;11.918;2024-03-08T07:36:47;5.90;99.90
43049;DHT22;28673;44.412;11.918;2024-03-08T07:39:13;5.90;99.90
43049;DHT22;28673;44.412;11.918;2024-03-08T07:41:41;6.00;99.90
43049;DHT22;28673;44.412;11.918;2024-03-08T07:44:07;6.10;99.90
43049;DHT22;28673;44.412;11.918;2024-03-08T07:46:33;6.20;99.90
43049;DHT22;28673;44.412;11.918;2024-03-08T07:49:00;6.30;99.90
43049;DHT22;28673;44.412;11.918;2024-03-08T07:51:26;6.40;99.90
43049;DHT22;28673;44.412;11.918;2024-03-08T07:53:51;6.50;99.90
43049;DHT22;28673;44.412;11.918;2024-03-08T07:56:17;6.60;99.90
43049;DHT22;28673;44.412;11.918;2024-03-08T07:58:45;6.70;99.90
43049;DHT22;28673;44.412;11.918;2024-03-08T08:01:20;6.80;99.90
43049;DHT22;28673;44.412;11.918;2024-03-08T08:03:46;6.90;99.90
43049;DHT22;28673;44.412;11.918;2024-03-08T08:06:15;7.00;99.90
43049;DHT22;28673;44.412;11.918;2024-03-08T08:08:44;7.00;99.90
43049;DHT22;28673;44.412;11.918;2024-03-08T08:11:10;7.20;99.90
43049;DHT22;28673;44.412;11.918;2024-03-08T08:13:42;7.20;99.90
43049;DHT22;28673;44.412;11.918;2024-03-08T08:16:09;7.30;99.90
43049;DHT22;28673;44.412;11.918;2024-03-08T08:18:36;7.40;99.90
43049;DHT22;28673;44.412;11.918;2024-03-08T08:21:02;7.50;99.90
43049;DHT22;28673;44.412;11.918;2024-03-08T08:23:28;7.60;99.90
43049;DHT22;28673;44.412;11.918;2024-03-08T08:25:55;7.70;99.90
43049;DHT22;28673;44.412;11.918;2024-03-08T08:28:21;7.80;99.90
43049;DHT22;28673;44.412;11.918;2024-03-08T08:30:47;7.90;99.90
43049;DHT22;28673;44.412;11.918;2024-03-08T08:33:14;8.00;99.90
43049;DHT22;28673;44.412;11.918;2024-03-08T08:35:40;8.10;99.90
43049;DHT22;28673;44.412;11.918;2024-03-08T08:38:06;8.10;99.90
43049;DHT22;28673;44.412;11.918;2024-03-08T08:40:33;8.20;99.90
43049;DHT22;28673;44.412;11.918;2024-03-08T08:43:02;8.30;99.90
43049;DHT22;28673;44.412;11.918;2024-03-08T08:45:30;8.40;99.90
43049;DHT22;28673;44.412;11.918;2024-03-08T08:47:56;8.60;99.90
43049;DHT22;28673;44.412;11.918;2024-03-08T08:50:25;8.70;99.90
43049;DHT22;28673;44.412;11.918;2024-03-08T08:52:52;8.80;99.90
43049;DHT22;28673;44.412;11.918;2024-03-08T08:55:18;8.90;99.90
43049;DHT22;28673;44.412;11.918;2024-03-08T08:57:47;8.90;99.90
43049;DHT22;28673;44.412;11.918;2024-03-08T09:00:20;9.00;99.90
43049;DHT22;28673;44.412;11.918;2024-03-08T09:02:49;9.10;99.90
43049;DHT22;28673;44.412;11.918;2024-03-08T09:05:16;9.20;99.90
43049;DHT22;28673;44.412;11.918;2024-03-08T09:07:45;9.30;99.90
43049;DHT22;28673;44.412;11.918;2024-03-08T09:10:11;9.40;99.90
43049;DHT22;28673;44.412;11.918;2024-03-08T09:12:40;9.50;99.90
43049;DHT22;28673;44.412;11.918;2024-03-08T09:15:07;9.70;99.90
43049;DHT22;28673;44.412;11.918;2024-03-08T09:17:37;9.80;99.90
43049;DHT22;28673;44.412;11.918;2024-03-08T09:20:06;10.00;99.90
43049;DHT22;28673;44.412;11.918;2024-03-08T09:22:32;10.30;99.90
43049;DHT22;28673;44.412;11.918;2024-03-08T09:24:58;10.50;99.90
43049;DHT22;28673;44.412;11.918;2024-03-08T09:27:24;10.80;99.90
43049;DHT22;28673;44.412;11.918;2024-03-08T09:29:49;11.10;99.90
43049;DHT22;28673;44.412;11.918;2024-03-08T09:32:16;11.30;99.90
43049;DHT22;28673;44.412;11.918;2024-03-08T09:34:42;11.60;99.90
43049;DHT22;28673;44.412;11.918;2024-03-08T09:37:08;12.00;99.90
43049;DHT22;28673;44.412;11.918;2024-03-08T09:39:34;12.30;99.90
43049;DHT22;28673;44.412;11.918;2024-03-08T09:42:01;12.50;99.90
43049;DHT22;28673;44.412;11.918;2024-03-08T09:44:27;12.80;99.90
43049;DHT22;28673;44.412;11.918;2024-03-08T09:46:55;13.00;99.90
43049;DHT22;28673;44.412;11.918;2024-03-08T09:49:21;13.20;99.90
43049;DHT22;28673;44.412;11.918;2024-03-08T09:51:46;13.50;99.90
43049;DHT22;28673;44.412;11.918;2024-03-08T09:54:13;13.80;99.90
43049;DHT22;28673;44.412;11.918;2024-03-08T09:56:43;14.10;99.90
43049;DHT22;28673;44.412;11.918;2024-03-08T09:59:11;14.40;99.90
43049;DHT22;28673;44.412;11.918;2024-03-08T10:01:37;14.80;99.90
43049;DHT22;28673;44.412;11.918;2024-03-08T10:04:06;15.00;99.90
43049;DHT22;28673;44.412;11.918;2024-03-08T10:06:32;15.30;99.90
43049;DHT22;28673;44.412;11.918;2024-03-08T10:08:58;15.50;99.90
43049;DHT22;28673;44.412;11.918;2024-03-08T10:11:25;15.80;99.90
43049;DHT22;28673;44.412;11.918;2024-03-08T10:13:55;16.00;99.90
43049;DHT22;28673;44.412;11.918;2024-03-08T10:16:20;16.20;99.90
43049;DHT22;28673;44.412;11.918;2024-03-08T10:18:47;16.30;99.90
43049;DHT22;28673;44.412;11.918;2024-03-08T10:21:12;16.40;99.90
43049;DHT22;28673;44.412;11.918;2024-03-08T10:23:40;16.50;99.90
43049;DHT22;28673;44.412;11.918;2024-03-08T10:26:18;16.60;99.90
43049;DHT22;28673;44.412;11.918;2024-03-08T10:28:48;16.70;99.90
43049;DHT22;28673;44.412;11.918;2024-03-08T10:31:15;16.90;99.90
43049;DHT22;28673;44.412;11.918;2024-03-08T10:33:41;17.00;99.90
43049;DHT22;28673;44.412;11.918;2024-03-08T10:36:11;16.90;99.90
43049;DHT22;28673;44.412;11.918;2024-03-08T10:38:39;17.00;99.90
43049;DHT22;28673;44.412;11.918;2024-03-08T10:41:24;17.00;99.90
43049;DHT22;28673;44.412;11.918;2024-03-08T10:47:18;17.50;99.90
43049;DHT22;28673;44.412;11.918;2024-03-08T10:49:54;17.80;99.90
43049;DHT22;28673;44.412;11.918;2024-03-08T10:52:22;18.00;99.90
43049;DHT22;28673;44.412;11.918;2024-03-08T10:54:48;18.20;99.90
43049;DHT22;28673;44.412;11.918;2024-03-08T10:57:18;18.30;99.90
43049;DHT22;28673;44.412;11.918;2024-03-08T10:59:47;18.30;99.00
43049;DHT22;28673;44.412;11.918;2024-03-08T11:02:16;18.40;99.90
43049;DHT22;28673;44.412;11.918;2024-03-08T11:04:49;18.60;99.60
43049;DHT22;28673;44.412;11.918;2024-03-08T11:07:16;18.70;98.10
43049;DHT22;28673;44.412;11.918;2024-03-08T11:09:47;18.70;98.60
43049;DHT22;28673;44.412;11.918;2024-03-08T11:12:27;18.80;98.30
43049;DHT22;28673;44.412;11.918;2024-03-08T11:15:02;18.80;98.20
43049;DHT22;28673;44.412;11.918;2024-03-08T11:19:59;19.00;98.00
43049;DHT22;28673;44.412;11.918;2024-03-08T11:22:32;19.30;98.10
43049;DHT22;28673;44.412;11.918;2024-03-08T11:25:01;19.50;97.30
43049;DHT22;28673;44.412;11.918;2024-03-08T11:27:31;19.60;96.40
43049;DHT22;28673;44.412;11.918;2024-03-08T11:30:05;19.60;97.20
43049;DHT22;28673;44.412;11.918;2024-03-08T11:32:35;19.70;96.80
43049;DHT22;28673;44.412;11.918;2024-03-08T11:35:06;19.80;96.60
43049;DHT22;28673;44.412;11.918;2024-03-08T11:37:33;19.80;96.50
43049;DHT22;28673;44.412;11.918;2024-03-08T11:40:00;19.90;95.30
43049;DHT22;28673;44.412;11.918;2024-03-08T11:42:27;20.00;96.60
43049;DHT22;28673;44.412;11.918;2024-03-08T11:44:53;20.20;96.40
43049;DHT22;28673;44.412;11.918;2024-03-08T11:47:20;20.40;95.70
43049;DHT22;28673;44.412;11.918;2024-03-08T11:49:46;20.20;95.40
43049;DHT22;28673;44.412;11.918;2024-03-08T11:52:18;20.00;93.90
43049;DHT22;28673;44.412;11.918;2024-03-08T11:54:54;20.00;94.90
43049;DHT22;28673;44.412;11.918;2024-03-08T11:57:25;19.90;93.90
43049;DHT22;28673;44.412;11.918;2024-03-08T11:59:55;19.50;94.50
43049;DHT22;28673;44.412;11.918;2024-03-08T12:02:24;19.60;94.70
43049;DHT22;28673;44.412;11.918;2024-03-08T12:04:57;19.60;94.70
43049;DHT22;28673;44.412;11.918;2024-03-08T12:07:25;19.70;94.50
43049;DHT22;28673;44.412;11.918;2024-03-08T12:10:15;19.90;94.70
43049;DHT22;28673;44.412;11.918;2024-03-08T12:12:47;19.80;93.70
43049;DHT22;28673;44.412;11.918;2024-03-08T12:15:15;19.60;93.80
43049;DHT22;28673;44.412;11.918;2024-03-08T12:17:41;19.70;94.70
43049;DHT22;28673;44.412;11.918;2024-03-08T12:20:13;19.70;94.40
43049;DHT22;28673;44.412;11.918;2024-03-08T12:22:43;19.80;93.30
43049;DHT22;28673;44.412;11.918;2024-03-08T12:25:12;19.90;94.20
43049;DHT22;28673;44.412;11.918;2024-03-08T12:27:43;20.00;94.30
43049;DHT22;28673;44.412;11.918;2024-03-08T12:30:26;20.00;92.60
43049;DHT22;28673;44.412;11.918;2024-03-08T12:32:57;19.60;93.60
43049;DHT22;28673;44.412;11.918;2024-03-08T12:35:24;19.30;94.50
43049;DHT22;28673;44.412;11.918;2024-03-08T12:37:53;19.20;95.00
43049;DHT22;28673;44.412;11.918;2024-03-08T12:40:24;19.20;94.80
43049;DHT22;28673;44.412;11.918;2024-03-08T12:42:52;19.20;95.10
43049;DHT22;28673;44.412;11.918;2024-03-08T12:45:18;19.20;95.50
43049;DHT22;28673;44.412;11.918;2024-03-08T12:47:43;19.10;94.60
43049;DHT22;28673;44.412;11.918;2024-03-08T12:50:10;19.10;94.90
43049;DHT22;28673;44.412;11.918;2024-03-08T12:52:36;18.90;94.90
43049;DHT22;28673;44.412;11.918;2024-03-08T12:55:02;18.60;94.90
43049;DHT22;28673;44.412;11.918;2024-03-08T12:57:28;18.40;95.70
43049;DHT22;28673;44.412;11.918;2024-03-08T12:59:54;18.30;95.50
43049;DHT22;28673;44.412;11.918;2024-03-08T13:02:20;18.20;95.30
43049;DHT22;28673;44.412;11.918;2024-03-08T13:04:46;18.00;95.50
43049;DHT22;28673;44.412;11.918;2024-03-08T13:07:21;17.90;95.90
43049;DHT22;28673;44.412;11.918;2024-03-08T13:09:49;17.90;96.20
43049;DHT22;28673;44.412;11.918;2024-03-08T13:12:14;17.70;96.30
43049;DHT22;28673;44.412;11.918;2024-03-08T13:14:41;17.60;96.20
43049;DHT22;28673;44.412;11.918;2024-03-08T13:17:07;17.50;96.10
43049;DHT22;28673;44.412;11.918;2024-03-08T13:19:36;17.30;96.60
43049;DHT22;28673;44.412;11.918;2024-03-08T13:22:04;17.30;96.90
43049;DHT22;28673;44.412;11.918;2024-03-08T13:24:30;17.30;96.90
43049;DHT22;28673;44.412;11.918;2024-03-08T13:26:56;17.40;97.00
43049;DHT22;28673;44.412;11.918;2024-03-08T13:29:22;17.40;96.80
43049;DHT22;28673;44.412;11.918;2024-03-08T13:31:48;17.60;97.00
43049;DHT22;28673;44.412;11.918;2024-03-08T13:34:17;17.60;96.90
43049;DHT22;28673;44.412;11.918;2024-03-08T13:36:44;17.70;96.30
43049;DHT22;28673;44.412;11.918;2024-03-08T13:39:12;17.60;96.40
43049;DHT22;28673;44.412;11.918;2024-03-08T13:41:43;17.60;96.10
43049;DHT22;28673;44.412;11.918;2024-03-08T13:44:10;17.50;95.90
43049;DHT22;28673;44.412;11.918;2024-03-08T13:46:36;17.40;95.80
43049;DHT22;28673;44.412;11.918;2024-03-08T13:49:06;17.30;96.20
43049;DHT22;28673;44.412;11.918;2024-03-08T13:51:34;17.30;96.30
43049;DHT22;28673;44.412;11.918;2024-03-08T13:54:00;17.10;96.20
43049;DHT22;28673;44.412;11.918;2024-03-08T13:56:27;17.00;96.40
43049;DHT22;28673;44.412;11.918;2024-03-08T13:58:53;17.00;96.50
43049;DHT22;28673;44.412;11.918;2024-03-08T14:01:22;17.00;96.70
43049;DHT22;28673;44.412;11.918;2024-03-08T14:03:47;17.00;96.90
43049;DHT22;28673;44.412;11.918;2024-03-08T14:06:13;17.00;96.80
43049;DHT22;28673;44.412;11.918;2024-03-08T14:08:39;17.00;96.70
43049;DHT22;28673;44.412;11.918;2024-03-08T14:11:06;17.10;96.70
43049;DHT22;28673;44.412;11.918;2024-03-08T14:13:43;17.10;96.90
43049;DHT22;28673;44.412;11.918;2024-03-08T14:16:12;17.20;97.00
43049;DHT22;28673;44.412;11.918;2024-03-08T14:18:38;17.40;96.70
43049;DHT22;28673;44.412;11.918;2024-03-08T14:21:04;17.40;96.60
43049;DHT22;28673;44.412;11.918;2024-03-08T14:23:30;17.50;96.70
43049;DHT22;28673;44.412;11.918;2024-03-08T14:25:58;17.60;96.80
43049;DHT22;28673;44.412;11.918;2024-03-08T14:28:25;17.70;96.50
43049;DHT22;28673;44.412;11.918;2024-03-08T14:30:53;17.70;96.70
43049;DHT22;28673;44.412;11.918;2024-03-08T14:33:19;17.70;96.10
43049;DHT22;28673;44.412;11.918;2024-03-08T14:35:45;17.50;96.10
43049;DHT22;28673;44.412;11.918;2024-03-08T14:38:13;17.40;96.00
43049;DHT22;28673;44.412;11.918;2024-03-08T14:40:39;17.20;96.00
43049;DHT22;28673;44.412;11.918;2024-03-08T14:43:05;17.00;96.30
43049;DHT22;28673;44.412;11.918;2024-03-08T14:45:31;16.80;96.50
43049;DHT22;28673;44.412;11.918;2024-03-08T14:47:57;16.70;96.90
43049;DHT22;28673;44.412;11.918;2024-03-08T14:50:24;16.60;97.00
43049;DHT22;28673;44.412;11.918;2024-03-08T14:52:51;16.30;97.10
43049;DHT22;28673;44.412;11.918;2024-03-08T14:55:21;16.10;97.00
43049;DHT22;28673;44.412;11.918;2024-03-08T14:57:51;15.90;97.00
43049;DHT22;28673;44.412;11.918;2024-03-08T15:00:18;15.80;97.20
43049;DHT22;28673;44.412;11.918;2024-03-08T15:02:59;15.60;97.70
43049;DHT22;28673;44.412;11.918;2024-03-08T15:05:27;15.60;98.00
43049;DHT22;28673;44.412;11.918;2024-03-08T15:07:54;15.60;98.20
43049;DHT22;28673;44.412;11.918;2024-03-08T15:10:20;15.50;98.40
43049;DHT22;28673;44.412;11.918;2024-03-08T15:12:50;15.50;98.50
43049;DHT22;28673;44.412;11.918;2024-03-08T15:15:21;15.40;98.60
43049;DHT22;28673;44.412;11.918;2024-03-08T15:17:48;15.40;98.50
43049;DHT22;28673;44.412;11.918;2024-03-08T15:20:14;15.30;98.50
43049;DHT22;28673;44.412;11.918;2024-03-08T15:22:49;15.30;98.70
43049;DHT22;28673;44.412;11.918;2024-03-08T15:25:16;15.30;98.90
43049;DHT22;28673;44.412;11.918;2024-03-08T15:27:54;15.20;98.70
43049;DHT22;28673;44.412;11.918;2024-03-08T15:30:21;15.10;98.70
43049;DHT22;28673;44.412;11.918;2024-03-08T15:32:52;15.00;98.80
43049;DHT22;28673;44.412;11.918;2024-03-08T15:35:23;14.90;99.00